createdAt,value
2023-08-11T00:01:08.700Z,60.04
2023-08-11T00:03:37.012Z,60.21
2023-08-11T00:06:08.619Z,60.00
2023-08-11T00:08:41.151Z,59.97
2023-08-11T00:11:09.870Z,60.11
2023-08-11T00:13:38.115Z,59.98
2023-08-11T00:16:06.290Z,59.98
2023-08-11T00:18:34.387Z,60.16
2023-08-11T00:21:03.732Z,59.89
2023-08-11T00:23:31.909Z,60.03
2023-08-11T00:26:00.058Z,60.18
2023-08-11T00:28:28.285Z,60.24
2023-08-11T00:30:56.613Z,60.20
2023-08-11T00:33:24.917Z,60.36
2023-08-11T00:35:53.116Z,60.15
2023-08-11T00:38:24.986Z,60.25
2023-08-11T00:40:53.148Z,60.07
2023-08-11T00:43:21.173Z,60.31
2023-08-11T00:45:50.535Z,60.42
2023-08-11T00:48:18.775Z,60.15
2023-08-11T00:50:47.161Z,60.19
2023-08-11T00:53:15.370Z,60.33
2023-08-11T00:55:44.480Z,60.11
2023-08-11T00:58:12.857Z,60.17
2023-08-11T01:00:40.926Z,60.09
2023-08-11T01:03:09.746Z,60.20
2023-08-11T01:05:46.161Z,60.28
2023-08-11T01:09:02.634Z,60.35
2023-08-11T01:11:48.656Z,60.18
2023-08-11T01:14:32.333Z,60.18
2023-08-11T01:17:03.615Z,60.27
2023-08-11T01:19:36.810Z,60.25
2023-08-11T01:22:11.427Z,60.17
2023-08-11T01:24:39.767Z,60.28
2023-08-11T01:27:08.714Z,60.19
2023-08-11T01:29:36.976Z,60.16
2023-08-11T01:32:06.435Z,60.11
2023-08-11T01:34:34.805Z,60.24
2023-08-11T01:37:05.587Z,60.13
2023-08-11T01:39:34.404Z,60.20
2023-08-11T01:42:02.691Z,60.14
2023-08-11T01:44:31.232Z,60.30
2023-08-11T01:46:59.860Z,60.01
2023-08-11T01:49:28.489Z,60.06
2023-08-11T01:51:56.899Z,60.07
2023-08-11T01:54:25.236Z,59.97
2023-08-11T01:56:55.843Z,59.96
2023-08-11T01:59:23.864Z,60.04
2023-08-11T02:01:51.968Z,60.06
2023-08-11T02:04:22.438Z,60.18
2023-08-11T02:06:50.442Z,59.99
2023-08-11T02:09:18.557Z,60.10
2023-08-11T02:11:46.704Z,60.29
2023-08-11T02:14:14.752Z,60.19
2023-08-11T02:16:42.845Z,60.09
2023-08-11T02:19:11.416Z,60.02
2023-08-11T02:21:40.303Z,60.14
2023-08-11T02:24:08.364Z,60.34
2023-08-11T02:26:36.543Z,60.10
2023-08-11T02:29:05.082Z,60.06
2023-08-11T02:31:34.158Z,60.18
2023-08-11T02:34:02.196Z,60.22
2023-08-11T02:36:30.283Z,60.32
2023-08-11T02:38:58.300Z,60.28
2023-08-11T02:41:27.225Z,60.25
2023-08-11T02:43:55.280Z,60.17
2023-08-11T02:46:24.019Z,60.01
2023-08-11T02:48:52.088Z,60.07
2023-08-11T02:51:20.531Z,60.36
2023-08-11T02:53:48.657Z,60.26
2023-08-11T02:56:17.360Z,60.23
2023-08-11T02:58:45.505Z,60.21
2023-08-11T03:01:13.617Z,60.19
2023-08-11T03:03:44.051Z,60.11
2023-08-11T03:06:12.834Z,60.21
2023-08-11T03:08:41.630Z,60.20
2023-08-11T03:11:10.192Z,60.23
2023-08-11T03:13:38.782Z,60.16
2023-08-11T03:16:07.073Z,60.26
2023-08-11T03:18:36.676Z,60.21
2023-08-11T03:21:18.776Z,60.29
2023-08-11T03:23:48.686Z,60.31
2023-08-11T03:26:17.169Z,60.19
2023-08-11T03:28:45.391Z,60.27
2023-08-11T03:31:14.632Z,60.21
2023-08-11T03:33:44.687Z,60.34
2023-08-11T03:36:15.419Z,60.26
2023-08-11T03:38:44.648Z,60.09
2023-08-11T03:41:13.285Z,60.22
2023-08-11T03:43:41.428Z,60.34
2023-08-11T03:46:09.455Z,60.34
2023-08-11T03:48:38.387Z,60.38
2023-08-11T03:51:08.242Z,60.33
2023-08-11T03:53:37.723Z,60.30
2023-08-11T03:56:08.992Z,60.30
2023-08-11T03:58:40.273Z,60.26
2023-08-11T04:01:09.446Z,60.49
2023-08-11T04:03:38.060Z,60.43
2023-08-11T04:06:06.366Z,60.39
2023-08-11T04:08:34.841Z,60.47
2023-08-11T04:11:02.933Z,60.41
2023-08-11T04:13:30.988Z,60.43
2023-08-11T04:16:01.330Z,60.41
2023-08-11T04:18:29.368Z,60.35
2023-08-11T04:20:57.630Z,60.35
2023-08-11T04:23:25.727Z,60.51
2023-08-11T04:25:55.154Z,60.51
2023-08-11T04:28:23.556Z,60.56
2023-08-11T04:30:51.755Z,60.32
2023-08-11T04:33:20.184Z,60.44
2023-08-11T04:35:50.764Z,60.42
2023-08-11T04:38:19.399Z,60.45
2023-08-11T04:40:51.673Z,60.34
2023-08-11T04:43:20.674Z,60.36
2023-08-11T04:45:50.368Z,60.58
2023-08-11T04:48:19.070Z,60.46
2023-08-11T04:50:54.021Z,60.35
2023-08-11T04:53:22.668Z,60.36
2023-08-11T04:55:52.393Z,60.37
2023-08-11T04:58:21.628Z,60.35
2023-08-11T05:00:50.059Z,60.19
2023-08-11T05:03:18.447Z,60.18
2023-08-11T05:05:46.744Z,60.29
2023-08-11T05:08:14.795Z,60.30
2023-08-11T05:10:42.857Z,60.39
2023-08-11T05:13:10.979Z,60.31
2023-08-11T05:15:40.126Z,60.50
2023-08-11T05:18:08.346Z,60.43
2023-08-11T05:20:36.401Z,60.42
2023-08-11T05:23:05.315Z,60.33
2023-08-11T05:25:33.413Z,60.34
2023-08-11T05:28:01.437Z,60.38
2023-08-11T05:30:29.585Z,60.23
2023-08-11T05:32:58.275Z,60.26
2023-08-11T05:35:27.770Z,60.21
2023-08-11T05:37:56.135Z,60.18
2023-08-11T05:40:24.513Z,60.25
2023-08-11T05:42:52.618Z,60.10
2023-08-11T05:45:20.787Z,60.22
2023-08-11T05:47:48.868Z,59.99
2023-08-11T05:50:16.920Z,59.88
2023-08-11T05:52:44.959Z,59.73
2023-08-11T05:55:13.048Z,59.92
2023-08-11T05:57:41.095Z,59.82
2023-08-11T06:00:10.408Z,59.90
2023-08-11T06:02:41.454Z,59.83
2023-08-11T06:05:09.652Z,59.83
2023-08-11T06:07:37.750Z,59.81
2023-08-11T06:10:06.707Z,59.84
2023-08-11T06:12:34.766Z,59.72
2023-08-11T06:15:04.619Z,59.83
2023-08-11T06:17:32.900Z,59.84
2023-08-11T06:20:02.474Z,59.78
2023-08-11T06:22:30.508Z,59.79
2023-08-11T06:24:59.924Z,59.98
2023-08-11T06:27:28.417Z,59.86
2023-08-11T06:29:56.448Z,59.85
2023-08-11T06:32:24.443Z,59.69
2023-08-11T06:34:52.466Z,59.62
2023-08-11T06:37:20.680Z,59.78
2023-08-11T06:39:48.699Z,59.75
2023-08-11T06:42:16.715Z,59.67
2023-08-11T06:44:49.813Z,59.63
2023-08-11T06:47:17.994Z,59.72
2023-08-11T06:49:46.405Z,59.61
2023-08-11T06:52:14.526Z,59.54
2023-08-11T06:54:42.577Z,59.27
2023-08-11T06:57:11.140Z,59.21
2023-08-11T06:59:39.684Z,59.34
2023-08-11T07:02:07.717Z,59.25
2023-08-11T07:04:35.852Z,59.03
2023-08-11T07:07:04.130Z,59.00
2023-08-11T07:09:32.761Z,59.00
2023-08-11T07:12:01.301Z,59.11
2023-08-11T07:14:29.365Z,58.91
2023-08-11T07:16:57.465Z,58.50
2023-08-11T07:19:25.606Z,58.67
2023-08-11T07:21:53.752Z,58.61
2023-08-11T07:24:21.858Z,58.56
2023-08-11T07:26:49.886Z,58.46
2023-08-11T07:29:17.949Z,58.42
2023-08-11T07:31:46.032Z,58.43
2023-08-11T07:34:14.066Z,58.01
2023-08-11T07:36:42.112Z,58.00
2023-08-11T07:39:22.001Z,57.98
2023-08-11T07:41:52.047Z,57.90
2023-08-11T07:44:20.579Z,57.86
2023-08-11T07:46:48.729Z,57.57
2023-08-11T07:49:16.851Z,57.43
2023-08-11T07:51:45.048Z,57.57
2023-08-11T07:54:14.513Z,57.63
2023-08-11T07:56:42.704Z,57.36
2023-08-11T07:59:11.167Z,57.14
2023-08-11T08:01:39.296Z,57.21
2023-08-11T08:04:07.485Z,57.20
2023-08-11T08:06:37.925Z,57.14
2023-08-11T08:09:10.726Z,57.03
2023-08-11T08:11:40.037Z,56.71
2023-08-11T08:14:08.062Z,56.83
2023-08-11T08:16:36.065Z,56.63
2023-08-11T08:19:06.155Z,56.42
2023-08-11T08:21:34.524Z,56.43
2023-08-11T08:24:05.344Z,56.29
2023-08-11T08:26:33.770Z,55.96
2023-08-11T08:29:02.136Z,55.68
2023-08-11T08:31:30.704Z,55.57
2023-08-11T08:33:59.278Z,55.44
2023-08-11T08:36:27.573Z,55.51
2023-08-11T08:38:55.618Z,55.52
2023-08-11T08:41:29.144Z,55.33
2023-08-11T08:43:58.161Z,55.36
2023-08-11T08:46:31.970Z,55.48
2023-08-11T08:49:24.557Z,55.39
2023-08-11T08:51:54.345Z,55.34
2023-08-11T08:54:22.557Z,55.21
2023-08-11T08:56:53.385Z,55.12
2023-08-11T08:59:22.967Z,55.09
2023-08-11T09:01:51.521Z,55.04
2023-08-11T09:04:21.962Z,54.93
2023-08-11T09:06:52.231Z,54.96
2023-08-11T09:09:24.800Z,54.63
2023-08-11T09:11:53.256Z,54.39
2023-08-11T09:14:23.052Z,54.44
2023-08-11T09:16:53.674Z,54.37
2023-08-11T09:19:22.310Z,54.22
2023-08-11T09:21:50.395Z,54.19
2023-08-11T09:24:18.634Z,54.00
2023-08-11T09:26:51.613Z,53.83
2023-08-11T09:29:21.150Z,54.06
2023-08-11T09:31:54.407Z,53.73
2023-08-11T09:34:23.294Z,53.80
2023-08-11T09:36:52.128Z,53.36
2023-08-11T09:39:21.891Z,53.46
2023-08-11T09:41:50.095Z,53.43
2023-08-11T09:44:19.917Z,53.14
2023-08-11T09:46:50.988Z,53.09
2023-08-11T09:49:19.758Z,53.28
2023-08-11T09:51:50.542Z,53.31
2023-08-11T09:54:19.848Z,53.05
2023-08-11T09:56:51.632Z,53.19
2023-08-11T09:59:21.051Z,53.15
2023-08-11T10:01:54.321Z,52.91
2023-08-11T10:04:29.926Z,52.92
2023-08-11T10:07:04.407Z,52.87
2023-08-11T10:09:35.421Z,52.88
2023-08-11T10:12:06.141Z,52.70
2023-08-11T10:14:36.335Z,52.88
2023-08-11T10:17:05.240Z,52.76
2023-08-11T10:19:34.529Z,52.94
2023-08-11T10:22:03.590Z,52.86
2023-08-11T10:24:32.002Z,52.93
2023-08-11T10:27:00.333Z,52.72
2023-08-11T10:29:29.834Z,52.77
2023-08-11T10:31:59.674Z,52.72
2023-08-11T10:34:28.366Z,52.86
2023-08-11T10:36:58.637Z,52.81
2023-08-11T10:39:27.486Z,52.72
2023-08-11T10:41:58.521Z,52.71
2023-08-11T10:44:30.782Z,52.73
2023-08-11T10:47:02.613Z,52.70
2023-08-11T10:49:43.112Z,52.46
2023-08-11T10:52:12.677Z,52.65
2023-08-11T10:54:50.998Z,52.32
2023-08-11T10:57:19.203Z,52.27
2023-08-11T10:59:47.282Z,52.06
2023-08-11T11:02:15.652Z,52.03
2023-08-11T11:04:45.463Z,51.99
2023-08-11T11:07:15.512Z,51.93
2023-08-11T11:09:43.654Z,51.94
2023-08-11T11:12:12.202Z,52.17
2023-08-11T11:14:40.892Z,52.02
2023-08-11T11:17:09.057Z,51.84
2023-08-11T11:19:37.302Z,51.87
2023-08-11T11:22:07.869Z,51.94
2023-08-11T11:24:38.750Z,51.88
2023-08-11T11:27:07.370Z,52.00
2023-08-11T11:29:38.491Z,51.93
2023-08-11T11:32:08.349Z,51.96
2023-08-11T11:34:38.752Z,51.89
2023-08-11T11:37:06.907Z,51.78
2023-08-11T11:39:35.011Z,51.75
2023-08-11T11:42:08.099Z,51.61
2023-08-11T11:44:37.084Z,51.54
2023-08-11T11:47:06.221Z,51.61
2023-08-11T11:49:34.250Z,51.61
2023-08-11T11:52:03.013Z,51.67
2023-08-11T11:54:32.081Z,51.33
2023-08-11T11:57:04.974Z,51.31
2023-08-11T11:59:34.936Z,51.40
2023-08-11T12:02:03.308Z,51.63
2023-08-11T12:04:31.776Z,51.63
2023-08-11T12:07:00.244Z,51.58
2023-08-11T12:09:29.853Z,51.62
2023-08-11T12:11:58.293Z,51.53
2023-08-11T12:14:27.840Z,51.53
2023-08-11T12:16:56.636Z,51.53
2023-08-11T12:19:24.765Z,51.58
2023-08-11T12:21:53.429Z,51.75
2023-08-11T12:24:22.543Z,51.71
2023-08-11T12:26:50.809Z,51.37
2023-08-11T12:29:18.857Z,51.62
2023-08-11T12:31:46.997Z,51.84
2023-08-11T12:34:15.161Z,52.25
2023-08-11T12:36:43.269Z,52.17
2023-08-11T12:39:11.398Z,52.43
2023-08-11T12:41:40.167Z,52.52
2023-08-11T12:44:08.287Z,52.60
2023-08-11T12:46:37.516Z,52.37
2023-08-11T12:49:05.920Z,52.24
2023-08-11T12:51:34.108Z,52.36
2023-08-11T12:54:02.132Z,52.56
2023-08-11T12:56:30.230Z,52.45
2023-08-11T12:58:58.360Z,52.37
2023-08-11T13:01:30.164Z,52.55
2023-08-11T13:04:00.503Z,52.65
2023-08-11T13:06:28.658Z,52.72
2023-08-11T13:08:56.753Z,52.76
2023-08-11T13:11:24.822Z,52.89
2023-08-11T13:13:52.839Z,53.18
2023-08-11T13:16:20.916Z,53.24
2023-08-11T13:18:48.908Z,53.18
2023-08-11T13:21:18.141Z,53.31
2023-08-11T13:23:46.275Z,53.48
2023-08-11T13:26:14.624Z,53.42
2023-08-11T13:28:42.751Z,53.53
2023-08-11T13:31:10.836Z,53.42
2023-08-11T13:33:39.198Z,53.52
2023-08-11T13:36:07.281Z,53.72
2023-08-11T13:38:35.679Z,53.90
2023-08-11T13:41:03.877Z,53.83
2023-08-11T13:43:35.921Z,53.99
2023-08-11T13:46:04.277Z,53.79
2023-08-11T13:48:32.418Z,54.01
2023-08-11T13:51:00.776Z,54.01
2023-08-11T13:53:28.817Z,53.82
2023-08-11T13:55:56.817Z,53.92
2023-08-11T13:58:25.020Z,53.90
2023-08-11T14:00:53.571Z,53.81
2023-08-11T14:03:21.606Z,53.83
2023-08-11T14:05:49.602Z,53.93
2023-08-11T14:08:17.905Z,54.00
2023-08-11T14:10:45.999Z,53.99
2023-08-11T14:13:14.095Z,53.97
2023-08-11T14:15:42.591Z,54.07
2023-08-11T14:18:10.734Z,53.99
2023-08-11T14:20:38.772Z,54.04
2023-08-11T14:23:07.056Z,54.12
2023-08-11T14:25:35.103Z,53.98
2023-08-11T14:28:03.930Z,53.81
2023-08-11T14:30:32.722Z,53.76
2023-08-11T14:33:01.257Z,53.52
2023-08-11T14:35:29.396Z,53.63
2023-08-11T14:37:59.106Z,53.55
2023-08-11T14:40:27.122Z,53.68
2023-08-11T14:42:55.272Z,53.63
2023-08-11T14:45:23.330Z,53.42
2023-08-11T14:47:51.524Z,53.13
2023-08-11T14:50:19.790Z,53.35
2023-08-11T14:52:47.914Z,53.24
2023-08-11T14:55:16.834Z,52.99
2023-08-11T14:57:45.543Z,52.79
2023-08-11T15:00:14.783Z,52.90
2023-08-11T15:02:43.114Z,52.64
2023-08-11T15:05:11.450Z,52.48
2023-08-11T15:07:39.491Z,52.52
2023-08-11T15:10:08.589Z,52.46
2023-08-11T15:12:36.710Z,52.37
2023-08-11T15:15:05.975Z,52.28
2023-08-11T15:17:34.101Z,52.14
2023-08-11T15:20:02.238Z,52.04
2023-08-11T15:22:30.357Z,51.75
2023-08-11T15:25:02.339Z,51.77
2023-08-11T15:27:30.557Z,51.93
2023-08-11T15:29:59.186Z,51.56
2023-08-11T15:32:27.319Z,51.74
2023-08-11T15:34:55.374Z,51.76
2023-08-11T15:37:23.497Z,51.61
2023-08-11T15:39:51.854Z,51.35
2023-08-11T15:42:19.930Z,51.05
2023-08-11T15:44:49.006Z,51.11
2023-08-11T15:47:17.043Z,51.03
2023-08-11T15:49:45.100Z,50.86
2023-08-11T15:52:13.306Z,50.78
2023-08-11T15:54:41.480Z,50.97
2023-08-11T15:57:09.624Z,50.78
2023-08-11T15:59:37.634Z,50.67
2023-08-11T16:02:10.582Z,50.64
2023-08-11T16:04:39.450Z,50.58
2023-08-11T16:07:07.504Z,50.38
2023-08-11T16:09:35.645Z,50.28
2023-08-11T16:12:03.990Z,49.88
2023-08-11T16:14:32.473Z,50.09
2023-08-11T16:17:00.773Z,50.02
2023-08-11T16:19:28.918Z,49.76
2023-08-11T16:21:57.122Z,49.67
2023-08-11T16:24:25.234Z,49.64
2023-08-11T16:26:53.573Z,49.71
2023-08-11T16:29:21.676Z,49.94
2023-08-11T16:31:50.088Z,49.93
2023-08-11T16:34:18.257Z,49.87
2023-08-11T16:36:46.308Z,49.98
2023-08-11T16:39:15.090Z,49.87
2023-08-11T16:41:43.150Z,49.86
2023-08-11T16:44:11.734Z,50.01
2023-08-11T16:46:40.228Z,49.94
2023-08-11T16:49:08.500Z,50.04
2023-08-11T16:51:36.576Z,50.00
2023-08-11T16:54:05.067Z,49.94
2023-08-11T16:56:33.134Z,49.78
2023-08-11T16:59:01.756Z,49.92
2023-08-11T17:01:29.862Z,49.95
2023-08-11T17:03:58.089Z,50.00
2023-08-11T17:06:26.329Z,50.22
2023-08-11T17:08:54.582Z,50.45
2023-08-11T17:11:22.631Z,50.23
2023-08-11T17:13:51.137Z,50.32
2023-08-11T17:16:20.322Z,50.39
2023-08-11T17:18:50.943Z,50.39
2023-08-11T17:21:20.148Z,50.49
2023-08-11T17:23:48.974Z,50.71
2023-08-11T17:26:17.085Z,50.82
2023-08-11T17:28:45.326Z,50.88
2023-08-11T17:31:13.489Z,51.07
2023-08-11T17:33:41.569Z,51.06
2023-08-11T17:36:10.045Z,51.16
2023-08-11T17:38:38.098Z,51.28
2023-08-11T17:41:06.801Z,51.32
2023-08-11T17:43:34.884Z,51.27
2023-08-11T17:46:03.167Z,51.25
2023-08-11T17:48:31.356Z,51.32
2023-08-11T17:50:59.501Z,51.31
2023-08-11T17:53:27.661Z,51.33
2023-08-11T17:55:55.770Z,51.28
2023-08-11T17:58:23.882Z,51.16
2023-08-11T18:00:52.005Z,51.21
2023-08-11T18:03:20.201Z,51.35
2023-08-11T18:05:48.441Z,51.36
2023-08-11T18:08:16.580Z,51.42
2023-08-11T18:10:44.675Z,51.39
2023-08-11T18:13:12.842Z,51.49
2023-08-11T18:15:41.993Z,51.59
2023-08-11T18:18:10.129Z,51.65
2023-08-11T18:20:38.246Z,51.87
2023-08-11T18:23:06.488Z,51.81
2023-08-11T18:25:36.400Z,51.83
2023-08-11T18:28:05.106Z,51.95
2023-08-11T18:30:33.239Z,51.96
2023-08-11T18:33:01.441Z,52.27
2023-08-11T18:35:29.778Z,52.35
2023-08-11T18:37:58.042Z,52.36
2023-08-11T18:40:27.241Z,52.44
2023-08-11T18:42:55.534Z,52.59
2023-08-11T18:45:23.792Z,52.68
2023-08-11T18:47:54.431Z,52.73
2023-08-11T18:50:22.535Z,52.83
2023-08-11T18:52:51.425Z,52.97
2023-08-11T18:55:19.419Z,53.20
2023-08-11T18:57:47.557Z,53.37
2023-08-11T19:00:16.315Z,53.49
2023-08-11T19:02:44.660Z,53.55
2023-08-11T19:05:12.931Z,53.72
2023-08-11T19:07:41.103Z,53.70
2023-08-11T19:10:09.487Z,53.77
2023-08-11T19:12:37.915Z,53.99
2023-08-11T19:15:06.838Z,54.16
2023-08-11T19:17:35.172Z,54.21
2023-08-11T19:20:03.900Z,54.25
2023-08-11T19:22:32.071Z,54.53
2023-08-11T19:25:00.239Z,54.74
2023-08-11T19:27:28.826Z,54.56
2023-08-11T19:29:56.926Z,54.89
2023-08-11T19:32:24.989Z,55.02
2023-08-11T19:34:53.110Z,55.05
2023-08-11T19:37:21.125Z,55.09
2023-08-11T19:39:49.277Z,55.42
2023-08-11T19:42:17.315Z,55.40
2023-08-11T19:44:45.891Z,55.40
2023-08-11T19:48:53.659Z,55.55
2023-08-11T19:51:54.410Z,55.64
2023-08-11T19:55:44.241Z,55.65
2023-08-11T19:59:18.921Z,55.88
2023-08-11T20:03:12.608Z,55.90
2023-08-11T20:06:31.139Z,55.97
2023-08-11T20:09:11.925Z,56.32
2023-08-11T20:12:28.554Z,56.50
2023-08-11T20:16:05.725Z,56.72
2023-08-11T20:19:11.416Z,56.58
2023-08-11T20:22:48.722Z,56.57
2023-08-11T20:25:50.775Z,56.95
2023-08-11T20:28:48.148Z,56.94
2023-08-11T20:31:47.064Z,57.03
2023-08-11T20:35:56.584Z,56.94
2023-08-11T20:39:45.923Z,57.27
2023-08-11T20:43:57.430Z,57.47
2023-08-11T20:48:01.618Z,57.53
2023-08-11T20:52:00.559Z,57.58
2023-08-11T20:55:38.791Z,57.74
2023-08-11T20:59:42.572Z,57.88
2023-08-11T21:03:52.240Z,58.07
2023-08-11T21:07:04.159Z,58.03
2023-08-11T21:10:16.093Z,58.27
2023-08-11T21:14:05.457Z,58.37
2023-08-11T21:17:41.131Z,58.59
2023-08-11T21:21:16.089Z,58.59
2023-08-11T21:24:32.977Z,58.69
2023-08-11T21:28:17.605Z,58.67
2023-08-11T21:31:29.310Z,59.00
2023-08-11T21:35:16.889Z,58.90
2023-08-11T21:39:20.081Z,58.92
2023-08-11T21:43:22.583Z,59.03
2023-08-11T21:46:57.492Z,58.89
2023-08-11T21:51:08.764Z,58.99
2023-08-11T21:55:13.420Z,59.16
2023-08-11T21:58:31.323Z,59.20
2023-08-11T22:01:49.359Z,59.15
2023-08-11T22:05:26.043Z,59.27
2023-08-11T22:08:50.585Z,59.28
2023-08-11T22:12:40.996Z,59.26
2023-08-11T22:16:20.281Z,59.15
2023-08-11T22:19:47.436Z,59.51
2023-08-11T22:23:14.075Z,59.13
2023-08-11T22:26:57.325Z,59.57
2023-08-11T22:31:07.032Z,59.44
2023-08-11T22:34:47.101Z,59.34
2023-08-11T22:38:58.017Z,59.71
2023-08-11T22:42:57.329Z,59.61
2023-08-11T22:45:48.727Z,59.65
2023-08-11T22:49:41.084Z,59.68
2023-08-11T22:53:35.427Z,59.53
2023-08-11T22:56:37.241Z,59.86
2023-08-11T23:00:20.070Z,59.65
2023-08-11T23:04:03.829Z,59.71
2023-08-11T23:08:05.987Z,59.75
2023-08-11T23:12:08.377Z,59.54
2023-08-11T23:15:31.133Z,59.76
2023-08-11T23:18:53.494Z,59.62
2023-08-11T23:22:47.254Z,59.70
2023-08-11T23:26:37.542Z,59.78
2023-08-11T23:30:30.326Z,59.77
2023-08-11T23:34:15.280Z,59.64
2023-08-11T23:37:55.579Z,59.62
2023-08-11T23:41:40.654Z,59.64
2023-08-11T23:45:20.096Z,59.52
2023-08-11T23:48:21.447Z,59.79
2023-08-11T23:51:50.842Z,59.90
2023-08-11T23:55:40.016Z,59.86
2023-08-11T23:58:59.278Z,59.91
